ENLE

Ekofisk Oil Platform

Ekofisk, Norway
METAR ENLE 170450Z 23012KT 9999 SCT008 BKN020 12/11 Q1013 W12/S3
Observed Flight Rules
Oct-17 @ 04:50 UTC (58 minutes ago) Marginal Visual Flight Rules
Wind Visibility Clouds
230° at 12 knots 10,000+ meters
  • Scattered at 800' AGL
  • Broken at 2,000' AGL
Temperatures Readings
Current 12°C / 54°F
Dewpoint 11°C / 52°F
Humidity 94%
Altimeter 29.91" Hg
Pressure 1013 hPa
Elevation 3
METAR ENLE 170450Z 23012KT 9999 SCT008 BKN020 12/11 Q1013 W12/S3
Observed Flight Rules
Oct-17 @ 04:50 UTC
(58 minutes ago)
MVFR
Wind Visibility
230° at 12 knots 10,000+ meters
Clouds
  • Scattered at 800' AGL
  • Broken at 2,000' AGL
Temperature Dewpoint
12°C / 54°F 11°C / 52°F
Humidity Altimeter Pressure
94% 29.91" Hg 1013 hPa